• Join FlightAware (Why Join?)
  • Login
  • US Flag 
02:38AM EDT


 

Airport Tracker/Info


-or-


 

Live Flight TrackerFlight Track Log ✈ AMF1021 ✈ 08-May-2013 ✈ KSAW - KLAN

Flight Track Log - Related Links

Times and Time Zones

All times are in EDT time to prevent confusion due to time zone crossing. See the AMF1021 flight status page for this flight to view local times or setup timezone preferences in your user account.

Time Position Orientation Groundspeed Altitude Reporting Facility
EDT Latitude Longitude Course Direction KTS MPH feet Rate Location/Type
07:35PM 46.3317 -87.4431 221° Southwest 184 212 3,900  Level Minneapolis Center
07:36PM 46.2869 -87.4003 147° Southeast 191 220 5,800 1,800 Climbing Minneapolis Center
07:37PM 46.2372 -87.3575 149° Southeast 203 234 7,700 1,740 Climbing Minneapolis Center
07:38PM 46.1842 -87.3111 149° Southeast 218 251 9,500 1,860 Climbing Minneapolis Center
07:39PM 46.1267 -87.2592 148° Southeast 222 255 11,600 1,860 Climbing Minneapolis Center
07:40PM 46.0725 -87.2133 150° Southeast 222 255 13,400 1,680 Climbing Minneapolis Center
07:41PM 46.0136 -87.1694 153° Southeast 233 268 15,100 1,560 Climbing Minneapolis Center
07:42PM 45.9589 -87.1181 147° Southeast 232 267 16,700 1,440 Climbing Minneapolis Center
07:43PM 45.8978 -87.0619 147° Southeast 237 273 18,100 1,080 Climbing Minneapolis Center
07:45PM 45.8447 -87.0150 148° Southeast 239 275 19,000 420 Climbing Minneapolis Center
07:46PM 45.7817 -86.9631 150° Southeast 256 295 19,000  Level Minneapolis Center
07:47PM 45.7131 -86.9100 152° Southeast 275 316 19,000  Level Minneapolis Center
07:48PM 45.6444 -86.8586 152° Southeast 279 321 19,000  Level Minneapolis Center
07:49PM 45.5622 -86.7922 151° Southeast 283 326 19,000  Level Minneapolis Center
07:50PM 45.4936 -86.7353 150° Southeast 286 329 19,000  Level Minneapolis Center
07:51PM 45.4258 -86.6789 150° Southeast 285 328 19,000  Level Minneapolis Center
07:52PM 45.3586 -86.6217 149° Southeast 283 326 19,000  Level Minneapolis Center
07:53PM 45.2917 -86.5639 149° Southeast 283 326 19,000  Level Minneapolis Center
07:54PM 45.2106 -86.4950 149° Southeast 283 326 19,000  Level Minneapolis Center
07:55PM 45.1417 -86.4364 149° Southeast 290 334 19,000  Level Minneapolis Center
07:56PM 45.0742 -86.3797 149° Southeast 286 329 19,000  Level Minneapolis Center
07:57PM 45.0058 -86.3256 151° Southeast 283 326 19,000  Level Minneapolis Center
07:58PM 44.9369 -86.2722 151° Southeast 283 326 19,000  Level Minneapolis Center
07:59PM 44.8675 -86.2169 151° Southeast 285 328 19,000  Level Minneapolis Center
08:00PM 44.7853 -86.1511 150° Southeast 285 328 19,000  Level Minneapolis Center
08:01PM 44.7150 -86.0978 152° Southeast 285 328 19,000  Level Minneapolis Center
08:02PM 44.6456 -86.0425 150° Southeast 287 330 19,000  Level Minneapolis Center
08:03PM 44.5694 -85.9811 150° Southeast 284 327 19,000  Level Minneapolis Center
08:04PM 44.4997 -85.9258 151° Southeast 287 330 19,000  Level Minneapolis Center
08:05PM 44.4297 -85.8703 150° Southeast 290 334 19,000  Level Minneapolis Center
08:06PM 44.3600 -85.8147 150° Southeast 289 333 19,000  Level Minneapolis Center
08:07PM 44.2894 -85.7603 151° Southeast 290 334 19,000  Level Minneapolis Center
08:08PM 44.2200 -85.7042 150° Southeast 289 333 19,000  Level Minneapolis Center
08:09PM 44.1353 -85.6375 151° Southeast 291 335 19,000  Level Minneapolis Center
08:10PM 44.0656 -85.5819 150° Southeast 290 334 19,000  Level Minneapolis Center
08:11PM 44.0025 -85.5331 151° Southeast 289 333 19,000  Level Minneapolis Center
08:12PM 43.9333 -85.4775 150° Southeast 288 331 19,000  Level Minneapolis Center
08:13PM 43.8494 -85.4103 150° Southeast 290 334 19,000  Level Minneapolis Center
08:14PM 43.7789 -85.3556 151° Southeast 290 334 19,000  Level Minneapolis Center
08:16PM 43.7075 -85.3014 151° Southeast 292 336 19,000  Level Minneapolis Center
08:17PM 43.6375 -85.2458 150° Southeast 291 335 19,000 -300 Level Minneapolis Center
08:18PM 43.5672 -85.1919 151° Southeast 290 334 18,400 -840 Descending Minneapolis Center
08:19PM 43.4969 -85.1383 151° Southeast 290 334 17,300 -1,320 Descending Minneapolis Center
08:20PM 43.4106 -85.0683 150° Southeast 297 342 15,700 -1,560 Descending Minneapolis Center
08:21PM 43.3381 -85.0092 149° Southeast 301 346 14,100 -1,440 Descending Minneapolis Center
08:21PM 43.2956 -84.9703 146° Southeast 302 348 13,300 -1,560 Descending Chicago Center
08:22PM 43.2536 -84.9306 145° Southeast 295 339 12,300 -1,500 Descending Cleveland Center
08:23PM 43.1808 -84.8742 151° Southeast 301 346 11,100 -960 Descending Cleveland Center
08:24PM 43.1136 -84.8269 153° Southeast 301 346 10,400 -780 Descending Cleveland Center
08:24PM 43.0794 -84.8075 157° South 264 304 9,900 -360 Descending Chicago Center
08:25PM 43.0383 -84.7481 133° Southeast 207 238 9,900 -420 Level Chicago Center
08:27PM 43.0053 -84.6919 129° Southeast 194 223 9,100 -1,020 Descending Chicago Center
08:28PM 42.9711 -84.6347 129° Southeast 194 223 7,900 -1,260 Descending Chicago Center
08:29PM 42.9411 -84.5786 126° Southeast 187 215 6,600 -1,440 Descending Chicago Center
08:30PM 42.9050 -84.5336 138° Southeast 182 209 5,000 -1,680 Descending Chicago Center
08:31PM 42.8303 -84.5300 178° South 188 216 2,800 -1,740 Descending Cleveland Center